sensor_id;sensor_type;location;lat;lon;timestamp;pressure;altitude;pressure_sealevel;temperature;humidity
69060;BME280;56135;37.534;-122.308;2023-02-19T00:01:41;101521.38;;;16.01;34.87
69060;BME280;56135;37.534;-122.308;2023-02-19T00:04:19;101523.22;;;15.97;36.18
69060;BME280;56135;37.534;-122.308;2023-02-19T00:06:47;101514.53;;;15.89;37.68
69060;BME280;56135;37.534;-122.308;2023-02-19T00:09:15;101513.72;;;15.86;37.71
69060;BME280;56135;37.534;-122.308;2023-02-19T00:11:42;101503.97;;;15.84;39.81
69060;BME280;56135;37.534;-122.308;2023-02-19T00:14:13;101507.72;;;15.74;40.60
69060;BME280;56135;37.534;-122.308;2023-02-19T00:16:40;101503.28;;;15.75;43.31
69060;BME280;56135;37.534;-122.308;2023-02-19T00:19:09;101497.09;;;15.73;43.19
69060;BME280;56135;37.534;-122.308;2023-02-19T00:21:36;101498.97;;;15.67;43.13
69060;BME280;56135;37.534;-122.308;2023-02-19T00:24:05;101493.72;;;15.64;42.90
69060;BME280;56135;37.534;-122.308;2023-02-19T00:26:32;101493.94;;;15.55;44.08
69060;BME280;56135;37.534;-122.308;2023-02-19T00:29:01;101491.31;;;15.54;44.31
69060;BME280;56135;37.534;-122.308;2023-02-19T00:31:32;101485.13;;;15.51;43.82
69060;BME280;56135;37.534;-122.308;2023-02-19T00:34:01;101495.91;;;15.45;45.46
69060;BME280;56135;37.534;-122.308;2023-02-19T00:36:28;101494.31;;;15.37;45.62
69060;BME280;56135;37.534;-122.308;2023-02-19T00:38:55;101490.88;;;15.31;46.46
69060;BME280;56135;37.534;-122.308;2023-02-19T00:41:22;101500.69;;;15.29;46.73
69060;BME280;56135;37.534;-122.308;2023-02-19T00:43:54;101496.50;;;15.17;47.99
69060;BME280;56135;37.534;-122.308;2023-02-19T00:46:26;101501.97;;;15.10;49.07
69060;BME280;56135;37.534;-122.308;2023-02-19T00:48:53;101512.75;;;15.02;50.22
69060;BME280;56135;37.534;-122.308;2023-02-19T00:51:21;101514.44;;;15.06;51.16
69060;BME280;56135;37.534;-122.308;2023-02-19T00:53:48;101522.38;;;15.08;52.28
69060;BME280;56135;37.534;-122.308;2023-02-19T00:56:14;101531.38;;;15.02;54.41
69060;BME280;56135;37.534;-122.308;2023-02-19T00:58:40;101535.13;;;14.90;56.84
69060;BME280;56135;37.534;-122.308;2023-02-19T01:01:07;101542.41;;;14.80;58.80
69060;BME280;56135;37.534;-122.308;2023-02-19T01:03:35;101561.25;;;14.66;62.07
69060;BME280;56135;37.534;-122.308;2023-02-19T01:06:02;101564.19;;;14.48;64.11
69060;BME280;56135;37.534;-122.308;2023-02-19T01:08:29;101563.50;;;14.33;64.81
69060;BME280;56135;37.534;-122.308;2023-02-19T01:10:58;101558.25;;;14.30;66.68
69060;BME280;56135;37.534;-122.308;2023-02-19T01:13:25;101564.50;;;14.28;65.31
69060;BME280;56135;37.534;-122.308;2023-02-19T01:15:53;101570.88;;;14.16;67.42
69060;BME280;56135;37.534;-122.308;2023-02-19T01:18:27;101570.19;;;14.01;68.38
69060;BME280;56135;37.534;-122.308;2023-02-19T01:20:53;101569.41;;;13.93;69.86
69060;BME280;56135;37.534;-122.308;2023-02-19T01:23:19;101570.41;;;13.86;70.56
69060;BME280;56135;37.534;-122.308;2023-02-19T01:25:45;101580.19;;;13.82;72.64
69060;BME280;56135;37.534;-122.308;2023-02-19T01:28:11;101582.16;;;13.66;74.29
69060;BME280;56135;37.534;-122.308;2023-02-19T01:30:38;101591.09;;;13.58;77.80
69060;BME280;56135;37.534;-122.308;2023-02-19T01:33:04;101589.50;;;13.43;79.07
69060;BME280;56135;37.534;-122.308;2023-02-19T01:35:31;101591.31;;;13.39;79.46
69060;BME280;56135;37.534;-122.308;2023-02-19T01:37:58;101590.47;;;13.32;79.87
69060;BME280;56135;37.534;-122.308;2023-02-19T01:40:24;101580.84;;;13.24;83.12
69060;BME280;56135;37.534;-122.308;2023-02-19T01:42:51;101580.13;;;13.08;84.38
69060;BME280;56135;37.534;-122.308;2023-02-19T01:45:33;101582.88;;;12.95;84.68
69060;BME280;56135;37.534;-122.308;2023-02-19T01:48:06;101597.97;;;12.92;84.33
69060;BME280;56135;37.534;-122.308;2023-02-19T01:50:44;101599.84;;;12.79;82.07
69060;BME280;56135;37.534;-122.308;2023-02-19T01:53:13;101608.72;;;12.72;79.50
69060;BME280;56135;37.534;-122.308;2023-02-19T01:55:43;101615.81;;;12.66;79.05
69060;BME280;56135;37.534;-122.308;2023-02-19T01:58:11;101619.41;;;12.59;72.29
69060;BME280;56135;37.534;-122.308;2023-02-19T02:00:39;101618.56;;;12.52;70.24
69060;BME280;56135;37.534;-122.308;2023-02-19T02:03:05;101623.00;;;12.52;67.93
69060;BME280;56135;37.534;-122.308;2023-02-19T02:08:09;101615.16;;;12.32;71.37
69060;BME280;56135;37.534;-122.308;2023-02-19T02:10:55;101607.28;;;12.24;71.94
69060;BME280;56135;37.534;-122.308;2023-02-19T02:13:22;101608.22;;;12.14;72.14
69060;BME280;56135;37.534;-122.308;2023-02-19T02:19:05;101610.09;;;11.87;78.56
69060;BME280;56135;37.534;-122.308;2023-02-19T02:25:01;101615.50;;;11.59;85.78
69060;BME280;56135;37.534;-122.308;2023-02-19T02:27:41;101605.81;;;11.43;90.71
69060;BME280;56135;37.534;-122.308;2023-02-19T02:30:41;101599.66;;;11.30;93.47
69060;BME280;56135;37.534;-122.308;2023-02-19T02:35:48;101592.69;;;11.01;98.62
69060;BME280;56135;37.534;-122.308;2023-02-19T02:38:17;101583.88;;;10.90;100.00
69060;BME280;56135;37.534;-122.308;2023-02-19T02:40:46;101580.38;;;10.78;100.00
69060;BME280;56135;37.534;-122.308;2023-02-19T02:43:12;101586.53;;;10.70;100.00
69060;BME280;56135;37.534;-122.308;2023-02-19T02:45:39;101568.91;;;10.59;100.00
69060;BME280;56135;37.534;-122.308;2023-02-19T02:48:17;101571.53;;;10.50;100.00
69060;BME280;56135;37.534;-122.308;2023-02-19T02:50:55;101572.41;;;10.38;100.00
69060;BME280;56135;37.534;-122.308;2023-02-19T02:53:45;101581.16;;;10.32;100.00
69060;BME280;56135;37.534;-122.308;2023-02-19T02:56:32;101582.03;;;10.19;100.00
69060;BME280;56135;37.534;-122.308;2023-02-19T02:59:01;101586.41;;;10.11;100.00
69060;BME280;56135;37.534;-122.308;2023-02-19T03:01:40;101581.97;;;9.99;100.00
69060;BME280;56135;37.534;-122.308;2023-02-19T03:10:31;101616.13;;;9.63;100.00
69060;BME280;56135;37.534;-122.308;2023-02-19T03:13:01;101610.81;;;9.54;100.00
69060;BME280;56135;37.534;-122.308;2023-02-19T03:15:57;101602.84;;;9.45;100.00
69060;BME280;56135;37.534;-122.308;2023-02-19T03:18:45;101594.03;;;9.37;100.00
69060;BME280;56135;37.534;-122.308;2023-02-19T03:21:34;101587.81;;;9.30;100.00
69060;BME280;56135;37.534;-122.308;2023-02-19T03:24:03;101605.38;;;9.26;100.00
69060;BME280;56135;37.534;-122.308;2023-02-19T03:26:50;101608.00;;;9.23;100.00
69060;BME280;56135;37.534;-122.308;2023-02-19T03:29:23;101608.00;;;9.23;100.00
69060;BME280;56135;37.534;-122.308;2023-02-19T03:31:56;101618.50;;;9.18;100.00
69060;BME280;56135;37.534;-122.308;2023-02-19T03:34:31;101620.28;;;9.18;100.00
69060;BME280;56135;37.534;-122.308;2023-02-19T03:37:14;101621.97;;;9.11;100.00
69060;BME280;56135;37.534;-122.308;2023-02-19T03:39:41;101623.72;;;9.09;100.00
69060;BME280;56135;37.534;-122.308;2023-02-19T03:42:15;101620.16;;;9.04;100.00
69060;BME280;56135;37.534;-122.308;2023-02-19T03:44:52;101620.13;;;8.99;100.00
69060;BME280;56135;37.534;-122.308;2023-02-19T03:47:27;101623.56;;;8.94;100.00
69060;BME280;56135;37.534;-122.308;2023-02-19T03:50:17;101627.06;;;8.88;100.00
69060;BME280;56135;37.534;-122.308;2023-02-19T03:52:53;101639.28;;;8.80;100.00
69060;BME280;56135;37.534;-122.308;2023-02-19T03:58:13;101654.06;;;8.65;100.00
69060;BME280;56135;37.534;-122.308;2023-02-19T04:01:09;101662.75;;;8.57;100.00
69060;BME280;56135;37.534;-122.308;2023-02-19T04:04:02;101663.56;;;8.48;100.00
69060;BME280;56135;37.534;-122.308;2023-02-19T04:06:30;101669.59;;;8.41;100.00
69060;BME280;56135;37.534;-122.308;2023-02-19T04:09:00;101678.28;;;8.33;100.00
69060;BME280;56135;37.534;-122.308;2023-02-19T04:11:28;101668.56;;;8.26;100.00
69060;BME280;56135;37.534;-122.308;2023-02-19T04:16:49;101665.78;;;8.14;100.00
69060;BME280;56135;37.534;-122.308;2023-02-19T04:19:20;101667.44;;;8.07;100.00
69060;BME280;56135;37.534;-122.308;2023-02-19T04:21:49;101672.69;;;8.04;100.00
69060;BME280;56135;37.534;-122.308;2023-02-19T04:24:30;101685.78;;;7.99;100.00
69060;BME280;56135;37.534;-122.308;2023-02-19T04:26:57;101683.94;;;7.92;100.00
69060;BME280;56135;37.534;-122.308;2023-02-19T04:29:24;101690.03;;;7.88;100.00
69060;BME280;56135;37.534;-122.308;2023-02-19T04:31:50;101677.72;;;7.85;100.00
69060;BME280;56135;37.534;-122.308;2023-02-19T04:34:17;101681.19;;;7.83;100.00
69060;BME280;56135;37.534;-122.308;2023-02-19T04:36:43;101697.78;;;7.79;100.00
69060;BME280;56135;37.534;-122.308;2023-02-19T04:39:09;101705.69;;;7.79;100.00
69060;BME280;56135;37.534;-122.308;2023-02-19T04:41:35;101696.84;;;7.74;100.00
69060;BME280;56135;37.534;-122.308;2023-02-19T04:44:02;101695.88;;;7.68;100.00
69060;BME280;56135;37.534;-122.308;2023-02-19T04:46:28;101705.44;;;7.63;100.00
69060;BME280;56135;37.534;-122.308;2023-02-19T04:48:54;101707.97;;;7.57;100.00
69060;BME280;56135;37.534;-122.308;2023-02-19T04:51:20;101707.97;;;7.56;100.00
69060;BME280;56135;37.534;-122.308;2023-02-19T04:53:46;101713.09;;;7.48;100.00
69060;BME280;56135;37.534;-122.308;2023-02-19T04:56:15;101716.53;;;7.42;100.00
69060;BME280;56135;37.534;-122.308;2023-02-19T04:58:42;101721.72;;;7.38;100.00
69060;BME280;56135;37.534;-122.308;2023-02-19T05:01:09;101723.31;;;7.29;100.00
69060;BME280;56135;37.534;-122.308;2023-02-19T05:03:36;101725.00;;;7.24;100.00
69060;BME280;56135;37.534;-122.308;2023-02-19T05:06:04;101730.19;;;7.20;100.00
69060;BME280;56135;37.534;-122.308;2023-02-19T05:08:30;101733.63;;;7.17;100.00
69060;BME280;56135;37.534;-122.308;2023-02-19T05:11:01;101736.16;;;7.11;100.00
69060;BME280;56135;37.534;-122.308;2023-02-19T05:13:28;101734.28;;;7.04;100.00
69060;BME280;56135;37.534;-122.308;2023-02-19T05:15:59;101735.00;;;6.95;100.00
69060;BME280;56135;37.534;-122.308;2023-02-19T05:18:26;101738.41;;;6.89;100.00
69060;BME280;56135;37.534;-122.308;2023-02-19T05:20:53;101737.44;;;6.84;100.00
69060;BME280;56135;37.534;-122.308;2023-02-19T05:23:20;101745.25;;;6.81;100.00
69060;BME280;56135;37.534;-122.308;2023-02-19T05:25:46;101745.09;;;6.73;100.00
69060;BME280;56135;37.534;-122.308;2023-02-19T05:28:12;101739.72;;;6.67;100.00
69060;BME280;56135;37.534;-122.308;2023-02-19T05:30:49;101748.38;;;6.61;100.00
69060;BME280;56135;37.534;-122.308;2023-02-19T05:33:18;101741.31;;;6.57;100.00
69060;BME280;56135;37.534;-122.308;2023-02-19T05:35:50;101742.88;;;6.47;100.00
69060;BME280;56135;37.534;-122.308;2023-02-19T05:38:17;101762.06;;;6.45;100.00
69060;BME280;56135;37.534;-122.308;2023-02-19T05:40:44;101761.97;;;6.42;100.00
69060;BME280;56135;37.534;-122.308;2023-02-19T05:43:11;101767.22;;;6.40;100.00
69060;BME280;56135;37.534;-122.308;2023-02-19T05:45:39;101770.59;;;6.34;100.00
69060;BME280;56135;37.534;-122.308;2023-02-19T05:48:05;101773.16;;;6.31;100.00
69060;BME280;56135;37.534;-122.308;2023-02-19T05:50:34;101773.00;;;6.24;100.00
69060;BME280;56135;37.534;-122.308;2023-02-19T05:53:02;101773.81;;;6.21;100.00
69060;BME280;56135;37.534;-122.308;2023-02-19T05:55:33;101785.09;;;6.17;100.00
69060;BME280;56135;37.534;-122.308;2023-02-19T05:58:00;101776.22;;;6.10;100.00
69060;BME280;56135;37.534;-122.308;2023-02-19T06:00:26;101785.75;;;6.07;100.00
69060;BME280;56135;37.534;-122.308;2023-02-19T06:02:53;101784.78;;;6.03;100.00
69060;BME280;56135;37.534;-122.308;2023-02-19T06:05:19;101786.50;;;6.01;100.00
69060;BME280;56135;37.534;-122.308;2023-02-19T06:07:45;101782.81;;;5.94;100.00
69060;BME280;56135;37.534;-122.308;2023-02-19T06:10:12;101777.47;;;5.91;100.00
69060;BME280;56135;37.534;-122.308;2023-02-19T06:12:38;101775.63;;;5.87;100.00
69060;BME280;56135;37.534;-122.308;2023-02-19T06:15:05;101777.25;;;5.82;100.00
69060;BME280;56135;37.534;-122.308;2023-02-19T06:17:32;101773.72;;;5.78;100.00
69060;BME280;56135;37.534;-122.308;2023-02-19T06:20:00;101767.50;;;5.75;100.00
69060;BME280;56135;37.534;-122.308;2023-02-19T06:22:26;101766.53;;;5.71;100.00
69060;BME280;56135;37.534;-122.308;2023-02-19T06:24:53;101773.41;;;5.66;100.00
69060;BME280;56135;37.534;-122.308;2023-02-19T06:27:19;101775.09;;;5.62;100.00
69060;BME280;56135;37.534;-122.308;2023-02-19T06:29:45;101780.22;;;5.59;100.00
69060;BME280;56135;37.534;-122.308;2023-02-19T06:32:11;101787.06;;;5.53;100.00
69060;BME280;56135;37.534;-122.308;2023-02-19T06:34:37;101782.63;;;5.50;100.00
69060;BME280;56135;37.534;-122.308;2023-02-19T06:37:04;101777.25;;;5.44;100.00
69060;BME280;56135;37.534;-122.308;2023-02-19T06:39:30;101787.63;;;5.41;100.00
69060;BME280;56135;37.534;-122.308;2023-02-19T06:41:56;101785.81;;;5.38;100.00
69060;BME280;56135;37.534;-122.308;2023-02-19T06:44:23;101792.75;;;5.34;100.00
69060;BME280;56135;37.534;-122.308;2023-02-19T06:46:49;101795.25;;;5.31;100.00
69060;BME280;56135;37.534;-122.308;2023-02-19T06:49:16;101800.41;;;5.27;100.00
69060;BME280;56135;37.534;-122.308;2023-02-19T06:51:42;101802.91;;;5.24;100.00
69060;BME280;56135;37.534;-122.308;2023-02-19T06:54:08;101801.00;;;5.16;100.00
69060;BME280;56135;37.534;-122.308;2023-02-19T06:56:36;101794.75;;;5.11;100.00
69060;BME280;56135;37.534;-122.308;2023-02-19T06:59:15;101793.88;;;5.11;100.00
69060;BME280;56135;37.534;-122.308;2023-02-19T07:01:45;101796.38;;;5.08;100.00
69060;BME280;56135;37.534;-122.308;2023-02-19T07:04:10;101790.22;;;5.04;100.00
69060;BME280;56135;37.534;-122.308;2023-02-19T07:06:37;101785.81;;;5.03;100.00
69060;BME280;56135;37.534;-122.308;2023-02-19T07:09:04;101790.09;;;5.01;100.00
69060;BME280;56135;37.534;-122.308;2023-02-19T07:11:33;101787.44;;;4.99;100.00
69060;BME280;56135;37.534;-122.308;2023-02-19T07:14:01;101797.84;;;4.96;100.00
69060;BME280;56135;37.534;-122.308;2023-02-19T07:16:27;101795.13;;;4.93;100.00
69060;BME280;56135;37.534;-122.308;2023-02-19T07:18:58;101790.75;;;4.92;100.00
69060;BME280;56135;37.534;-122.308;2023-02-19T07:21:25;101789.81;;;4.90;100.00
69060;BME280;56135;37.534;-122.308;2023-02-19T07:23:52;101795.03;;;4.89;100.00
69060;BME280;56135;37.534;-122.308;2023-02-19T07:26:20;101789.75;;;4.87;100.00
69060;BME280;56135;37.534;-122.308;2023-02-19T07:28:48;101789.63;;;4.84;100.00
69060;BME280;56135;37.534;-122.308;2023-02-19T07:31:16;101793.94;;;4.80;100.00
69060;BME280;56135;37.534;-122.308;2023-02-19T07:33:43;101794.69;;;4.76;100.00
69060;BME280;56135;37.534;-122.308;2023-02-19T07:36:10;101798.09;;;4.74;100.00
69060;BME280;56135;37.534;-122.308;2023-02-19T07:38:36;101799.78;;;4.72;100.00
69060;BME280;56135;37.534;-122.308;2023-02-19T07:41:04;101803.22;;;4.71;100.00
69060;BME280;56135;37.534;-122.308;2023-02-19T07:43:32;101802.31;;;4.68;100.00
69060;BME280;56135;37.534;-122.308;2023-02-19T07:46:05;101793.53;;;4.66;100.00
69060;BME280;56135;37.534;-122.308;2023-02-19T07:48:34;101804.78;;;4.64;100.00
69060;BME280;56135;37.534;-122.308;2023-02-19T07:51:01;101804.72;;;4.61;100.00
69060;BME280;56135;37.534;-122.308;2023-02-19T07:53:28;101802.91;;;4.58;100.00
69060;BME280;56135;37.534;-122.308;2023-02-19T07:55:59;101801.94;;;4.56;100.00
69060;BME280;56135;37.534;-122.308;2023-02-19T07:58:27;101794.97;;;4.55;100.00
69060;BME280;56135;37.534;-122.308;2023-02-19T08:00:53;101786.13;;;4.51;100.00
69060;BME280;56135;37.534;-122.308;2023-02-19T08:03:19;101790.50;;;4.51;100.00
69060;BME280;56135;37.534;-122.308;2023-02-19T08:05:45;101781.63;;;4.46;100.00
69060;BME280;56135;37.534;-122.308;2023-02-19T08:08:14;101776.38;;;4.46;100.00
69060;BME280;56135;37.534;-122.308;2023-02-19T08:10:40;101762.34;;;4.44;100.00
69060;BME280;56135;37.534;-122.308;2023-02-19T08:13:26;101742.13;;;4.38;100.00
69060;BME280;56135;37.534;-122.308;2023-02-19T08:18:28;101763.03;;;4.37;100.00
69060;BME280;56135;37.534;-122.308;2023-02-19T08:20:55;101777.75;;;4.33;100.00
69060;BME280;56135;37.534;-122.308;2023-02-19T08:23:21;101783.78;;;4.30;100.00
69060;BME280;56135;37.534;-122.308;2023-02-19T08:25:49;101782.63;;;4.21;100.00
69060;BME280;56135;37.534;-122.308;2023-02-19T08:28:16;101778.19;;;4.18;100.00
69060;BME280;56135;37.534;-122.308;2023-02-19T08:30:44;101760.63;;;4.14;100.00
69060;BME280;56135;37.534;-122.308;2023-02-19T08:33:16;101755.41;;;4.14;100.00
69060;BME280;56135;37.534;-122.308;2023-02-19T08:35:43;101745.81;;;4.14;100.00
69060;BME280;56135;37.534;-122.308;2023-02-19T08:38:10;101753.63;;;4.13;100.00
69060;BME280;56135;37.534;-122.308;2023-02-19T08:40:39;101758.69;;;4.08;100.00
69060;BME280;56135;37.534;-122.308;2023-02-19T08:43:11;101746.41;;;4.06;100.00
69060;BME280;56135;37.534;-122.308;2023-02-19T08:45:55;101739.31;;;4.01;100.00
69060;BME280;56135;37.534;-122.308;2023-02-19T08:48:22;101741.06;;;4.01;100.00
69060;BME280;56135;37.534;-122.308;2023-02-19T08:50:58;101737.50;;;3.99;100.00
69060;BME280;56135;37.534;-122.308;2023-02-19T08:53:25;101755.81;;;3.99;100.00
69060;BME280;56135;37.534;-122.308;2023-02-19T08:55:51;101749.53;;;3.94;100.00
69060;BME280;56135;37.534;-122.308;2023-02-19T08:58:18;101747.75;;;3.91;100.00
69060;BME280;56135;37.534;-122.308;2023-02-19T09:00:44;101759.97;;;3.92;100.00
69060;BME280;56135;37.534;-122.308;2023-02-19T09:03:10;101768.59;;;3.90;100.00
69060;BME280;56135;37.534;-122.308;2023-02-19T09:05:37;101778.91;;;3.85;100.00
69060;BME280;56135;37.534;-122.308;2023-02-19T09:08:04;101791.00;;;3.81;100.00
69060;BME280;56135;37.534;-122.308;2023-02-19T09:10:30;101797.84;;;3.78;100.00
69060;BME280;56135;37.534;-122.308;2023-02-19T09:12:56;101791.66;;;3.74;100.00
69060;BME280;56135;37.534;-122.308;2023-02-19T09:15:23;101804.59;;;3.71;100.00
69060;BME280;56135;37.534;-122.308;2023-02-19T09:17:52;101808.88;;;3.67;100.00
69060;BME280;56135;37.534;-122.308;2023-02-19T09:20:18;101811.41;;;3.66;100.00
69060;BME280;56135;37.534;-122.308;2023-02-19T09:22:45;101816.50;;;3.61;100.00
69060;BME280;56135;37.534;-122.308;2023-02-19T09:25:11;101805.94;;;3.58;100.00
69060;BME280;56135;37.534;-122.308;2023-02-19T09:27:37;101792.81;;;3.57;100.00
69060;BME280;56135;37.534;-122.308;2023-02-19T09:30:03;101795.31;;;3.54;100.00
69060;BME280;56135;37.534;-122.308;2023-02-19T09:32:30;101796.16;;;3.53;100.00
69060;BME280;56135;37.534;-122.308;2023-02-19T09:34:57;101793.50;;;3.51;100.00
69060;BME280;56135;37.534;-122.308;2023-02-19T09:37:27;101800.41;;;3.49;100.00
69060;BME280;56135;37.534;-122.308;2023-02-19T09:39:54;101802.06;;;3.47;100.00
69060;BME280;56135;37.534;-122.308;2023-02-19T09:42:23;101799.38;;;3.44;100.00
69060;BME280;56135;37.534;-122.308;2023-02-19T09:44:54;101807.09;;;3.41;100.00
69060;BME280;56135;37.534;-122.308;2023-02-19T09:47:24;101807.00;;;3.38;100.00
69060;BME280;56135;37.534;-122.308;2023-02-19T09:50:06;101801.69;;;3.34;100.00
69060;BME280;56135;37.534;-122.308;2023-02-19T09:55:38;101794.59;;;3.30;100.00
69060;BME280;56135;37.534;-122.308;2023-02-19T10:00:39;101783.91;;;3.24;100.00
69060;BME280;56135;37.534;-122.308;2023-02-19T10:03:11;101777.81;;;3.24;100.00
69060;BME280;56135;37.534;-122.308;2023-02-19T10:05:40;101783.03;;;3.24;100.00
69060;BME280;56135;37.534;-122.308;2023-02-19T10:08:11;101778.59;;;3.21;100.00
69060;BME280;56135;37.534;-122.308;2023-02-19T10:10:59;101771.50;;;3.17;100.00
69060;BME280;56135;37.534;-122.308;2023-02-19T10:13:34;101774.81;;;3.13;100.00
69060;BME280;56135;37.534;-122.308;2023-02-19T10:16:04;101788.81;;;3.15;100.00
69060;BME280;56135;37.534;-122.308;2023-02-19T10:18:39;101787.00;;;3.12;100.00
69060;BME280;56135;37.534;-122.308;2023-02-19T10:21:13;101790.38;;;3.10;100.00
69060;BME280;56135;37.534;-122.308;2023-02-19T10:23:42;101802.34;;;3.03;100.00
69060;BME280;56135;37.534;-122.308;2023-02-19T10:26:08;101795.13;;;2.96;100.00
69060;BME280;56135;37.534;-122.308;2023-02-19T10:28:35;101787.22;;;2.94;100.00
69060;BME280;56135;37.534;-122.308;2023-02-19T10:31:06;101787.13;;;2.91;100.00
69060;BME280;56135;37.534;-122.308;2023-02-19T10:33:51;101786.34;;;2.94;100.00
69060;BME280;56135;37.534;-122.308;2023-02-19T10:36:28;101797.56;;;2.91;100.00
69060;BME280;56135;37.534;-122.308;2023-02-19T10:38:57;101794.13;;;2.92;100.00
69060;BME280;56135;37.534;-122.308;2023-02-19T10:41:25;101784.50;;;2.91;100.00
69060;BME280;56135;37.534;-122.308;2023-02-19T10:44:02;101768.75;;;2.88;100.00
69060;BME280;56135;37.534;-122.308;2023-02-19T10:46:33;101770.38;;;2.84;100.00
69060;BME280;56135;37.534;-122.308;2023-02-19T10:51:47;101761.44;;;2.78;100.00
69060;BME280;56135;37.534;-122.308;2023-02-19T10:54:32;101740.56;;;2.78;100.00
69060;BME280;56135;37.534;-122.308;2023-02-19T10:57:21;101743.91;;;2.74;100.00
69060;BME280;56135;37.534;-122.308;2023-02-19T10:59:57;101744.00;;;2.77;100.00
69060;BME280;56135;37.534;-122.308;2023-02-19T11:02:24;101740.56;;;2.78;100.00
69060;BME280;56135;37.534;-122.308;2023-02-19T11:05:16;101742.22;;;2.76;100.00
69060;BME280;56135;37.534;-122.308;2023-02-19T11:07:47;101736.06;;;2.74;100.00
69060;BME280;56135;37.534;-122.308;2023-02-19T11:13:02;101749.84;;;2.70;100.00
69060;BME280;56135;37.534;-122.308;2023-02-19T11:15:31;101759.31;;;2.67;100.00
69060;BME280;56135;37.534;-122.308;2023-02-19T11:18:09;101754.94;;;2.66;100.00
69060;BME280;56135;37.534;-122.308;2023-02-19T11:20:48;101759.22;;;2.64;100.00
69060;BME280;56135;37.534;-122.308;2023-02-19T11:23:25;101759.13;;;2.61;100.00
69060;BME280;56135;37.534;-122.308;2023-02-19T11:25:55;101751.13;;;2.57;100.00
69060;BME280;56135;37.534;-122.308;2023-02-19T11:28:42;101748.56;;;2.58;100.00
69060;BME280;56135;37.534;-122.308;2023-02-19T11:31:13;101742.50;;;2.59;100.00
69060;BME280;56135;37.534;-122.308;2023-02-19T11:34:01;101742.41;;;2.56;100.00
69060;BME280;56135;37.534;-122.308;2023-02-19T11:36:35;101732.91;;;2.58;100.00
69060;BME280;56135;37.534;-122.308;2023-02-19T11:39:19;101731.13;;;2.57;100.00
69060;BME280;56135;37.534;-122.308;2023-02-19T11:42:29;101738.84;;;2.54;100.00
69060;BME280;56135;37.534;-122.308;2023-02-19T11:53:26;101755.91;;;2.44;100.00
69060;BME280;56135;37.534;-122.308;2023-02-19T11:58:38;101746.97;;;2.38;100.00
69060;BME280;56135;37.534;-122.308;2023-02-19T12:04:03;101747.78;;;2.37;100.00
69060;BME280;56135;37.534;-122.308;2023-02-19T12:06:46;101752.00;;;2.33;100.00
69060;BME280;56135;37.534;-122.308;2023-02-19T12:12:19;101745.72;;;2.28;100.00
69060;BME280;56135;37.534;-122.308;2023-02-19T12:17:45;101743.78;;;2.22;100.00
69060;BME280;56135;37.534;-122.308;2023-02-19T12:41:41;101768.78;;;1.94;100.00
69060;BME280;56135;37.534;-122.308;2023-02-19T12:44:25;101770.56;;;1.95;100.00
69060;BME280;56135;37.534;-122.308;2023-02-19T12:46:58;101772.97;;;1.91;100.00
69060;BME280;56135;37.534;-122.308;2023-02-19T12:49:37;101771.28;;;1.91;100.00
69060;BME280;56135;37.534;-122.308;2023-02-19T12:52:26;101767.75;;;1.91;100.00
69060;BME280;56135;37.534;-122.308;2023-02-19T12:54:57;101774.75;;;1.92;100.00
69060;BME280;56135;37.534;-122.308;2023-02-19T12:57:32;101776.34;;;1.88;100.00
69060;BME280;56135;37.534;-122.308;2023-02-19T13:00:20;101786.59;;;1.83;100.00
69060;BME280;56135;37.534;-122.308;2023-02-19T13:03:04;101784.06;;;1.85;100.00
69060;BME280;56135;37.534;-122.308;2023-02-19T13:05:49;101777.97;;;1.85;100.00
69060;BME280;56135;37.534;-122.308;2023-02-19T13:08:23;101771.84;;;1.84;100.00
69060;BME280;56135;37.534;-122.308;2023-02-19T13:10:59;101772.63;;;1.81;100.00
69060;BME280;56135;37.534;-122.308;2023-02-19T13:13:50;101768.16;;;1.79;100.00
69060;BME280;56135;37.534;-122.308;2023-02-19T13:16:20;101773.38;;;1.79;100.00
69060;BME280;56135;37.534;-122.308;2023-02-19T13:18:51;101766.28;;;1.75;100.00
69060;BME280;56135;37.534;-122.308;2023-02-19T13:21:20;101762.84;;;1.76;100.00
69060;BME280;56135;37.534;-122.308;2023-02-19T13:24:12;101765.28;;;1.71;100.00
69060;BME280;56135;37.534;-122.308;2023-02-19T13:37:35;101794.56;;;1.65;100.00
69060;BME280;56135;37.534;-122.308;2023-02-19T13:40:18;101795.38;;;1.64;100.00
69060;BME280;56135;37.534;-122.308;2023-02-19T13:42:56;101789.25;;;1.62;100.00
69060;BME280;56135;37.534;-122.308;2023-02-19T13:50:41;101791.91;;;1.64;100.00
69060;BME280;56135;37.534;-122.308;2023-02-19T14:17:36;101807.84;;;1.50;100.00
69060;BME280;56135;37.534;-122.308;2023-02-19T14:31:13;101809.59;;;1.50;100.00
69060;BME280;56135;37.534;-122.308;2023-02-19T14:33:38;101814.53;;;1.44;100.00
69060;BME280;56135;37.534;-122.308;2023-02-19T14:36:31;101814.63;;;1.47;100.00
69060;BME280;56135;37.534;-122.308;2023-02-19T14:39:05;101828.41;;;1.44;100.00
69060;BME280;56135;37.534;-122.308;2023-02-19T14:41:38;101833.69;;;1.46;100.00
69060;BME280;56135;37.534;-122.308;2023-02-19T14:44:12;101832.75;;;1.44;100.00
69060;BME280;56135;37.534;-122.308;2023-02-19T14:46:53;101828.41;;;1.44;100.00
69060;BME280;56135;37.534;-122.308;2023-02-19T14:52:16;101818.91;;;1.45;100.00
69060;BME280;56135;37.534;-122.308;2023-02-19T14:55:04;101821.53;;;1.45;100.00